Time;durP1;ratioP1;P1;durP2;ratioP2;P2;SDS_P1;SDS_P2;PMS_P1;PMS_P2;Temp;Humidity;BMP_temperature;BMP_pressure;BME280_temperature;BME280_humidity;BME280_pressure;Samples;Min_cycle;Max_cycle;Signal;HPM_P1;HPM_P2
2020/12/15 00:00:30;;;;;;;45.92;27.93;;;;;;;1.70;83.29;100934.21;1718509;83;21030;-53
2020/12/15 00:02:58;;;;;;;53.45;33.90;;;;;;;1.73;83.14;100930.27;1718785;83;21042;-53
2020/12/15 00:05:26;;;;;;;53.15;34.05;;;;;;;1.72;83.18;100936.19;1718587;83;21009;-52
2020/12/15 00:07:53;;;;;;;46.65;31.23;;;;;;;1.73;83.21;100933.80;1718739;83;21006;-52
2020/12/15 00:10:23;;;;;;;46.88;29.87;;;;;;;1.73;83.04;100935.16;1718494;83;21050;-52
2020/12/15 00:12:50;;;;;;;52.05;30.97;;;;;;;1.69;82.97;100935.24;1718670;83;21002;-53
2020/12/15 00:15:17;;;;;;;53.35;32.88;;;;;;;1.67;83.00;100937.33;1718380;83;21042;-53
2020/12/15 00:17:44;;;;;;;48.58;31.23;;;;;;;1.69;83.01;100939.83;1718616;83;21505;-53
2020/12/15 00:20:13;;;;;;;49.20;32.75;;;;;;;1.70;83.07;100931.50;1718616;83;21014;-53
2020/12/15 00:22:41;;;;;;;46.37;32.08;;;;;;;1.72;83.06;100942.95;1718419;83;21210;-52
2020/12/15 00:25:08;;;;;;;52.00;34.88;;;;;;;1.72;83.07;100936.72;1690558;83;20994;-52
2020/12/15 00:27:36;;;;;;;54.63;34.18;;;;;;;1.72;83.18;100937.54;1711946;83;21589;-52
2020/12/15 00:30:03;;;;;;;48.08;29.32;;;;;;;1.76;83.17;100946.11;1705994;84;21066;-53
2020/12/15 00:32:31;;;;;;;48.20;32.85;;;;;;;1.80;82.99;100943.81;1705453;84;20955;-53
2020/12/15 00:34:58;;;;;;;48.40;31.37;;;;;;;1.83;82.99;100937.98;1705976;84;21714;-53
2020/12/15 00:37:26;;;;;;;51.88;34.45;;;;;;;1.86;82.80;100939.78;1705581;84;21047;-54
2020/12/15 00:39:55;;;;;;;42.93;29.60;;;;;;;1.84;82.71;100937.81;1705294;82;21321;-53
2020/12/15 00:42:22;;;;;;;53.83;33.73;;;;;;;1.86;82.69;100938.96;1705282;84;21050;-53
2020/12/15 00:44:50;;;;;;;47.10;32.20;;;;;;;1.85;82.63;100942.70;1705163;84;21035;-53
2020/12/15 00:47:19;;;;;;;52.65;33.45;;;;;;;1.86;82.68;100938.96;1705255;84;21371;-53
2020/12/15 00:49:46;;;;;;;49.77;36.70;;;;;;;1.91;82.63;100941.87;1705167;84;21051;-53
2020/12/15 00:54:51;;;;;;;40.15;28.57;;;;;;;2.06;82.58;100946.63;1883535;76;20913;-53
2020/12/15 00:57:19;;;;;;;43.35;30.37;;;;;;;2.02;82.60;100951.31;1851525;77;20985;-53
2020/12/15 00:59:47;;;;;;;41.18;29.90;;;;;;;2.02;82.40;100955.37;1851411;77;22576;-53
2020/12/15 01:02:15;;;;;;;50.10;33.63;;;;;;;2.02;82.39;100954.02;1851580;77;21441;-53
2020/12/15 01:04:43;;;;;;;51.05;35.80;;;;;;;1.99;82.19;100951.19;1851692;77;20993;-53
2020/12/15 01:07:11;;;;;;;47.95;32.15;;;;;;;1.97;82.18;100948.36;1851517;77;20946;-53
2020/12/15 01:09:39;;;;;;;42.08;28.35;;;;;;;1.97;82.36;100951.07;1851665;77;20977;-53
2020/12/15 01:12:11;;;;;;;46.42;29.60;;;;;;;1.96;82.30;100951.60;1851527;77;21263;-53
2020/12/15 01:14:39;;;;;;;41.15;25.25;;;;;;;1.94;82.15;100944.17;1819414;77;20958;-53
2020/12/15 01:17:11;;;;;;;53.00;35.25;;;;;;;1.92;82.18;100949.51;1851680;77;21588;-53
2020/12/15 01:19:40;;;;;;;46.68;32.55;;;;;;;1.86;82.21;100944.38;1851640;77;20954;-53
2020/12/15 01:22:11;;;;;;;49.10;32.73;;;;;;;1.86;82.56;100945.73;1851236;77;21131;-53
2020/12/15 01:24:50;;;;;;;51.00;35.45;;;;;;;1.92;82.45;100950.33;1851749;77;22313;-53
2020/12/15 01:27:33;;;;;;;49.15;32.70;;;;;;;1.94;82.66;100946.06;1850515;77;21768;-53
2020/12/15 01:30:03;;;;;;;47.30;30.68;;;;;;;1.97;82.38;100951.92;1851113;77;21401;-53
2020/12/15 01:32:34;;;;;;;47.43;31.62;;;;;;;1.96;82.36;100946.18;1815331;77;21030;-53
2020/12/15 01:35:01;;;;;;;44.65;30.43;;;;;;;1.98;82.38;100944.09;1819358;77;20990;-53
2020/12/15 01:37:29;;;;;;;45.20;31.75;;;;;;;1.99;82.31;100943.06;1851641;77;21355;-53
2020/12/15 01:39:57;;;;;;;47.95;31.87;;;;;;;1.98;82.24;100943.27;1819809;77;21021;-53
2020/12/15 01:42:27;;;;;;;43.23;29.70;;;;;;;1.93;82.32;100943.88;1817599;78;21053;-53
2020/12/15 01:44:56;;;;;;;45.92;31.37;;;;;;;1.90;82.27;100953.25;1818127;78;21041;-53
2020/12/15 01:47:24;;;;;;;44.25;28.65;;;;;;;1.84;82.38;100953.22;1788589;78;20990;-53
2020/12/15 01:49:54;;;;;;;44.30;30.62;;;;;;;1.86;82.56;100947.09;1818178;78;21614;-53
2020/12/15 01:52:21;;;;;;;46.40;32.03;;;;;;;1.90;82.58;100952.39;1788536;78;20969;-53
2020/12/15 01:54:59;;;;;;;51.50;38.60;;;;;;;1.94;82.48;100942.82;1867388;76;27789;-53
2020/12/15 01:57:45;;;;;;;48.75;32.93;;;;;;;1.96;82.53;100946.68;1849795;77;20987;-52
2020/12/15 02:00:29;;;;;;;41.93;28.40;;;;;;;2.02;82.59;100950.77;1851227;77;21197;-52
2020/12/15 02:03:02;;;;;;;41.45;28.05;;;;;;;2.02;82.41;100951.31;1849912;77;21040;-53
2020/12/15 02:05:38;;;;;;;34.30;25.02;;;;;;;2.01;82.53;100946.38;1845378;77;21021;-53
2020/12/15 02:08:06;;;;;;;33.90;22.80;;;;;;;1.99;82.49;100942.23;1851628;77;21025;-53
2020/12/15 02:10:35;;;;;;;38.30;24.67;;;;;;;1.97;82.60;100945.16;1851616;77;21068;-52
2020/12/15 02:13:07;;;;;;;31.40;21.95;;;;;;;1.97;82.65;100940.23;1849552;77;21198;-53
2020/12/15 02:15:35;;;;;;;36.15;25.10;;;;;;;1.97;82.47;100945.16;1851470;77;20931;-53
2020/12/15 02:18:07;;;;;;;37.55;26.52;;;;;;;1.90;82.34;100940.20;1851791;77;21529;-54
2020/12/15 02:20:42;;;;;;;34.08;23.87;;;;;;;1.85;82.47;100944.88;1846541;77;21341;-54
2020/12/15 02:23:29;;;;;;;37.40;26.33;;;;;;;1.85;82.79;100936.75;1849567;77;20986;-54
2020/12/15 02:26:08;;;;;;;39.98;25.08;;;;;;;1.84;82.87;100939.67;1850065;77;21158;-54
2020/12/15 02:28:35;;;;;;;38.95;24.25;;;;;;;1.84;82.94;100933.75;1851702;77;20982;-53
2020/12/15 02:31:04;;;;;;;36.03;26.15;;;;;;;1.86;83.09;100933.02;1851531;77;20978;-53
2020/12/15 02:33:36;;;;;;;37.55;25.23;;;;;;;1.86;83.12;100928.13;1850887;77;20981;-53
2020/12/15 02:36:04;;;;;;;34.03;26.57;;;;;;;1.87;83.06;100933.84;1851563;77;20985;-53
2020/12/15 02:38:32;;;;;;;41.55;28.27;;;;;;;1.85;83.06;100936.75;1838443;77;21181;-53
2020/12/15 02:41:00;;;;;;;40.03;27.07;;;;;;;1.82;83.03;100934.45;1818095;78;20970;-52
2020/12/15 02:43:43;;;;;;;34.58;27.25;;;;;;;1.87;83.07;100935.20;1846833;76;22677;-53
2020/12/15 02:46:12;;;;;;;39.15;27.80;;;;;;;1.83;83.24;100934.78;1816782;78;20953;-52
2020/12/15 02:48:40;;;;;;;39.85;26.45;;;;;;;1.87;83.26;100936.55;1816832;79;21034;-53
2020/12/15 02:51:09;;;;;;;37.40;25.10;;;;;;;1.90;83.24;100933.42;1816757;79;21006;-53
2020/12/15 02:53:56;;;;;;;35.00;25.62;;;;;;;1.89;83.12;100932.60;1797476;79;21016;-53
2020/12/15 02:56:25;;;;;;;33.80;23.38;;;;;;;1.88;83.25;100938.23;1797387;79;21056;-53
2020/12/15 02:59:00;;;;;;;41.23;31.48;;;;;;;1.94;83.18;100937.94;1835149;77;28520;-53
2020/12/15 03:01:28;;;;;;;35.80;26.02;;;;;;;1.92;83.01;100935.43;1818834;78;21623;-53
2020/12/15 03:03:58;;;;;;;34.70;26.45;;;;;;;1.97;83.02;100946.50;1749078;82;21216;-53
2020/12/15 03:06:39;;;;;;;32.65;23.87;;;;;;;2.00;82.97;100938.47;1818629;78;21013;-52
2020/12/15 03:09:09;;;;;;;37.00;24.52;;;;;;;2.02;83.14;100944.53;1748787;81;21026;-53
2020/12/15 03:11:39;;;;;;;34.43;24.82;;;;;;;2.01;83.06;100943.67;1818463;78;20958;-52
2020/12/15 03:14:09;;;;;;;31.73;24.18;;;;;;;2.03;83.09;100951.59;1748362;82;21006;-53
2020/12/15 03:16:36;;;;;;;32.57;24.40;;;;;;;2.03;83.10;100938.91;1787157;78;21195;-52
2020/12/15 03:19:05;;;;;;;34.25;24.25;;;;;;;2.04;83.11;100939.23;1748894;82;21042;-53
2020/12/15 03:21:35;;;;;;;33.42;24.95;;;;;;;2.03;83.05;100945.68;1818610;78;21017;-53
2020/12/15 03:24:05;;;;;;;32.67;22.62;;;;;;;2.01;83.04;100942.32;1818589;78;21009;-54
2020/12/15 03:26:33;;;;;;;36.70;25.37;;;;;;;1.98;82.98;100945.97;1818776;78;21018;-52
2020/12/15 03:29:03;;;;;;;37.20;27.62;;;;;;;1.95;83.02;100952.63;1748913;82;21868;-52
2020/12/15 03:31:31;;;;;;;39.03;26.87;;;;;;;1.95;83.10;100956.69;1818657;78;21041;-53
2020/12/15 03:33:58;;;;;;;38.65;27.77;;;;;;;1.97;83.20;100958.70;1818807;78;21227;-53
2020/12/15 03:36:26;;;;;;;39.40;28.52;;;;;;;1.97;83.18;100958.70;1818779;78;21021;-53
2020/12/15 03:38:55;;;;;;;40.03;27.60;;;;;;;1.99;83.21;100962.03;1748001;81;21042;-53
2020/12/15 03:41:26;;;;;;;39.95;27.55;;;;;;;2.00;83.24;100959.64;1784866;80;21088;-53
2020/12/15 03:44:06;;;;;;;39.65;28.38;;;;;;;1.99;83.19;100964.73;1746532;82;21620;-53
2020/12/15 03:46:35;;;;;;;39.08;28.52;;;;;;;1.99;83.13;100965.27;1784136;80;21068;-52
2020/12/15 03:49:05;;;;;;;39.30;28.62;;;;;;;2.00;83.21;100971.84;1718129;82;21600;-53
2020/12/15 03:51:34;;;;;;;43.85;27.45;;;;;;;1.98;83.28;100975.25;1784267;80;21049;-53
2020/12/15 03:54:21;;;;;;;46.83;28.25;;;;;;;1.98;83.39;100976.61;1743429;82;21501;-53
2020/12/15 03:57:07;;;;;;;34.70;24.50;;;;;;;2.03;83.34;100974.13;1888837;76;22745;-53
2020/12/15 03:59:37;;;;;;;38.30;27.35;;;;;;;1.97;83.35;100979.02;1858559;77;21001;-53
2020/12/15 04:02:05;;;;;;;46.48;29.75;;;;;;;1.96;83.41;100984.11;1859748;77;21127;-54
2020/12/15 04:04:33;;;;;;;38.75;24.90;;;;;;;2.01;83.46;100984.32;1859704;77;21033;-53
2020/12/15 04:07:01;;;;;;;41.00;25.23;;;;;;;2.02;83.35;100986.53;1821807;78;21446;-53
2020/12/15 04:09:31;;;;;;;35.80;24.40;;;;;;;1.99;83.31;100986.41;1820676;78;21445;-53
2020/12/15 04:11:59;;;;;;;31.97;23.73;;;;;;;2.00;83.38;100984.53;1821904;78;21019;-53
2020/12/15 04:14:27;;;;;;;36.10;26.65;;;;;;;2.00;83.32;100990.80;1821992;78;21142;-53
2020/12/15 04:16:56;;;;;;;36.23;25.08;;;;;;;1.99;83.22;100991.83;1821892;78;21027;-53
2020/12/15 04:19:24;;;;;;;39.23;27.10;;;;;;;1.99;83.14;101000.49;1821971;78;21028;-53
2020/12/15 04:21:52;;;;;;;39.38;27.85;;;;;;;1.91;83.10;100998.77;1821931;78;20987;-53
2020/12/15 04:24:21;;;;;;;37.67;27.37;;;;;;;1.90;83.25;100999.80;1821764;78;21070;-53
2020/12/15 04:26:53;;;;;;;40.67;28.45;;;;;;;1.89;83.33;101002.22;1821162;78;21124;-53
2020/12/15 04:29:21;;;;;;;40.10;27.93;;;;;;;1.89;83.34;101003.57;1821917;78;21603;-53
2020/12/15 04:31:59;;;;;;;33.05;23.80;;;;;;;1.88;83.30;101005.95;1820519;78;20995;-53
2020/12/15 04:34:27;;;;;;;34.95;25.82;;;;;;;1.80;83.40;101003.41;1821925;78;21036;-53
2020/12/15 04:36:57;;;;;;;36.70;26.55;;;;;;;1.74;83.53;101013.17;1821941;78;21015;-53
2020/12/15 04:39:27;;;;;;;31.82;23.85;;;;;;;1.74;83.88;101005.05;1815272;78;21505;-53
2020/12/15 04:41:56;;;;;;;34.98;25.60;;;;;;;1.81;84.08;101016.75;1783471;80;21046;-53
2020/12/15 04:44:25;;;;;;;34.35;25.37;;;;;;;1.86;83.92;101014.81;1756452;80;21014;-53
2020/12/15 04:47:13;;;;;;;31.73;23.18;;;;;;;1.88;83.84;101011.38;1783468;80;21066;-53
2020/12/15 04:50:10;;;;;;;35.85;25.77;;;;;;;1.92;83.98;101013.17;1786861;80;21080;-53
2020/12/15 04:53:11;;;;;;;31.05;21.57;;;;;;;1.95;83.86;101015.48;1846792;76;22680;-53
2020/12/15 04:55:47;;;;;;;32.30;22.00;;;;;;;1.87;83.91;101019.17;1813471;79;21045;-53
2020/12/15 04:58:20;;;;;;;36.23;25.32;;;;;;;1.85;83.94;101018.02;1755575;79;21195;-53
2020/12/15 05:00:50;;;;;;;31.37;24.67;;;;;;;1.85;84.01;101022.61;1785722;79;20997;-58
2020/12/15 05:03:22;;;;;;;31.15;24.65;;;;;;;1.86;83.98;101020.23;1814468;79;21627;-55
2020/12/15 05:05:50;;;;;;;31.33;22.45;;;;;;;1.85;83.97;101022.09;1816855;79;20997;-54
2020/12/15 05:08:20;;;;;;;32.10;23.55;;;;;;;1.88;84.12;101024.39;1816825;79;21041;-54
2020/12/15 05:10:50;;;;;;;34.45;24.77;;;;;;;1.89;84.04;101019.30;1815576;79;21920;-53
2020/12/15 05:13:30;;;;;;;41.98;30.77;;;;;;;1.93;84.06;101026.52;1803516;79;21057;-53
2020/12/15 05:15:57;;;;;;;34.15;26.48;;;;;;;1.97;84.03;101026.44;1816682;79;20954;-54
2020/12/15 05:18:40;;;;;;;39.25;26.77;;;;;;;1.96;83.80;101030.17;1808428;78;21706;-54
2020/12/15 05:21:19;;;;;;;32.03;24.23;;;;;;;1.96;83.83;101038.30;1816612;79;20966;-53
2020/12/15 05:23:54;;;;;;;36.68;24.00;;;;;;;1.93;83.68;101034.64;1816146;79;21157;-53
2020/12/15 05:26:26;;;;;;;32.55;22.27;;;;;;;1.90;83.78;101035.02;1816546;79;21044;-53
2020/12/15 05:29:08;;;;;;;33.05;24.35;;;;;;;1.93;83.95;101045.98;1816797;79;21607;-53
2020/12/15 05:31:44;;;;;;;34.58;23.18;;;;;;;1.98;83.96;101045.70;1813944;79;20977;-53
2020/12/15 05:34:30;;;;;;;31.70;23.27;;;;;;;1.99;83.69;101048.73;1816772;79;20919;-53
2020/12/15 05:37:16;;;;;;;31.45;22.70;;;;;;;1.97;83.66;101054.89;1816866;79;21262;-53
2020/12/15 05:40:10;;;;;;;36.05;21.20;;;;;;;2.00;83.81;101058.55;1846568;76;22788;-53
2020/12/15 05:42:42;;;;;;;35.00;22.27;;;;;;;1.97;83.84;101066.22;1814151;79;20966;-52
2020/12/15 05:45:09;;;;;;;30.92;23.62;;;;;;;1.98;83.79;101067.91;1816757;79;21907;-54
2020/12/15 05:47:39;;;;;;;34.53;26.20;;;;;;;1.99;83.89;101062.28;1760589;79;21069;-54
2020/12/15 05:50:07;;;;;;;35.58;25.97;;;;;;;2.03;83.86;101066.27;1816746;79;20998;-54
2020/12/15 05:52:34;;;;;;;35.17;24.23;;;;;;;2.06;83.88;101069.92;1816698;78;20958;-54
2020/12/15 05:55:10;;;;;;;36.15;26.80;;;;;;;2.06;83.83;101073.98;1816747;79;21037;-53
2020/12/15 05:57:37;;;;;;;35.75;27.07;;;;;;;2.05;83.81;101075.55;1816484;78;21818;-53
2020/12/15 06:00:10;;;;;;;44.95;28.80;;;;;;;2.06;83.76;101071.28;1785400;79;20994;-52
2020/12/15 06:02:41;;;;;;;49.30;35.60;;;;;;;2.07;83.61;101074.81;1816634;79;21647;-53
2020/12/15 06:05:09;;;;;;;53.80;35.68;;;;;;;2.05;83.60;101083.68;1816795;79;21038;-53
2020/12/15 06:07:38;;;;;;;58.92;40.75;;;;;;;2.05;83.64;101095.34;1816578;79;21029;-52
2020/12/15 06:10:06;;;;;;;57.80;36.08;;;;;;;2.04;83.76;101097.76;1816663;79;21353;-53
2020/12/15 06:12:35;;;;;;;65.15;41.23;;;;;;;2.06;83.77;101104.33;1816612;79;21054;-53
2020/12/15 06:15:03;;;;;;;63.70;38.83;;;;;;;2.04;83.83;101107.24;1816760;78;21002;-53
2020/12/15 06:17:30;;;;;;;52.00;34.35;;;;;;;2.06;83.79;101106.51;1816522;78;21033;-54
2020/12/15 06:20:00;;;;;;;53.02;35.95;;;;;;;2.10;83.76;101115.59;1816663;79;21040;-53
2020/12/15 06:22:27;;;;;;;54.90;39.88;;;;;;;2.10;83.74;101110.17;1816670;78;21587;-53
2020/12/15 06:24:59;;;;;;;37.80;26.62;;;;;;;2.10;83.77;101111.02;1816436;79;21073;-53
2020/12/15 06:27:32;;;;;;;40.05;27.07;;;;;;;2.12;83.74;101110.82;1816663;79;20974;-53
2020/12/15 06:30:00;;;;;;;39.08;27.58;;;;;;;2.15;83.80;101117.19;1816625;79;21539;-53
2020/12/15 06:32:27;;;;;;;48.05;34.73;;;;;;;2.17;83.66;101117.81;1816620;79;21014;-53
2020/12/15 06:34:56;;;;;;;65.92;45.28;;;;;;;2.14;83.43;101123.11;1816707;79;21177;-53
2020/12/15 06:37:24;;;;;;;62.80;43.00;;;;;;;2.09;83.52;101120.19;1814130;79;21465;-54
2020/12/15 06:39:58;;;;;;;44.95;31.00;;;;;;;2.11;83.70;101125.40;1795479;79;21539;-52
2020/12/15 06:42:27;;;;;;;52.00;33.23;;;;;;;2.15;83.64;101128.03;1798964;79;21735;-53
2020/12/15 06:45:07;;;;;;;51.63;36.95;;;;;;;2.10;83.58;101130.50;1798878;79;21039;-53
2020/12/15 06:47:35;;;;;;;48.05;34.23;;;;;;;2.14;83.82;101142.61;1798887;79;21379;-53
2020/12/15 06:50:16;;;;;;;45.90;33.73;;;;;;;2.19;83.81;101145.05;1779825;80;21065;-54
2020/12/15 06:52:46;;;;;;;47.40;32.80;;;;;;;2.25;83.72;101154.25;1779267;80;20994;-53
2020/12/15 06:55:14;;;;;;;45.35;31.52;;;;;;;2.25;83.51;101155.60;1779406;80;21081;-54
2020/12/15 06:57:42;;;;;;;48.65;32.80;;;;;;;2.25;83.52;101155.60;1778925;80;21171;-53
2020/12/15 07:00:11;;;;;;;39.75;29.75;;;;;;;2.28;83.47;101163.86;1779051;80;21623;-51
2020/12/15 07:02:48;;;;;;;39.27;27.58;;;;;;;2.30;83.38;101165.84;1778975;80;21062;-53
2020/12/15 07:05:28;;;;;;;39.55;28.00;;;;;;;2.33;83.43;101166.29;1773150;79;21050;-52
2020/12/15 07:08:00;;;;;;;41.58;29.00;;;;;;;2.36;83.33;101163.70;1720733;82;21021;-53
2020/12/15 07:10:29;;;;;;;55.58;34.70;;;;;;;2.35;83.08;101158.78;1722075;82;21025;-52
2020/12/15 07:12:59;;;;;;;81.02;43.17;;;;;;;2.31;83.08;101160.22;1717258;82;21519;-52
2020/12/15 07:15:28;;;;;;;110.17;54.03;;;;;;;2.25;83.00;101155.08;1757690;80;20982;-53
2020/12/15 07:17:56;;;;;;;109.37;61.35;;;;;;;2.22;83.16;101153.30;1764404;79;21364;-53
2020/12/15 07:20:25;;;;;;;108.70;68.87;;;;;;;2.26;83.29;101160.00;1764048;80;21100;-53
2020/12/15 07:22:52;;;;;;;157.50;79.77;;;;;;;2.31;83.36;101160.22;1758605;80;21423;-55
2020/12/15 07:25:20;;;;;;;68.57;39.13;;;;;;;2.32;83.09;101151.05;1769003;80;21116;-55
2020/12/15 07:27:48;;;;;;;67.47;34.38;;;;;;;2.31;83.02;101163.45;1765249;80;21683;-52
2020/12/15 07:30:19;;;;;;;61.85;33.88;;;;;;;2.26;82.70;101160.00;1721619;82;21178;-52
2020/12/15 07:32:47;;;;;;;68.28;39.35;;;;;;;2.18;82.82;101165.05;1746607;81;21073;-54
2020/12/15 07:35:22;;;;;;;59.93;33.50;;;;;;;2.16;82.82;101164.92;1749214;81;21731;-53
2020/12/15 07:37:56;;;;;;;71.45;38.95;;;;;;;2.13;83.01;101166.18;1749963;81;21426;-52
2020/12/15 07:40:28;;;;;;;55.63;33.53;;;;;;;2.17;83.18;101167.96;1737792;80;21026;-53
2020/12/15 07:43:02;;;;;;;54.50;36.83;;;;;;;2.21;83.18;101168.70;1702165;83;21077;-54
2020/12/15 07:45:33;;;;;;;54.33;37.30;;;;;;;2.22;83.05;101170.92;1775069;80;21055;-52
2020/12/15 07:48:05;;;;;;;52.93;32.40;;;;;;;2.24;83.13;101165.63;1777981;79;20938;-52
2020/12/15 07:50:33;;;;;;;50.85;32.45;;;;;;;2.31;83.19;101167.52;1776956;79;21380;-54
2020/12/15 07:53:10;;;;;;;89.30;55.12;;;;;;;2.34;83.07;101169.30;1772147;79;21063;-53
2020/12/15 07:55:39;;;;;;;85.03;50.40;;;;;;;2.38;82.79;101167.86;1736516;80;21057;-53
2020/12/15 07:58:16;;;;;;;103.87;65.00;;;;;;;2.41;82.59;101170.70;1722414;80;21155;-52
2020/12/15 08:00:44;;;;;;;78.12;50.75;;;;;;;2.40;82.55;101167.66;1713094;81;20994;-51
2020/12/15 08:05:29;;;;;;;86.65;53.80;;;;;;;2.52;82.55;101173.38;1763268;79;29173;-50
2020/12/15 08:08:01;;;;;;;79.22;50.50;;;;;;;2.51;82.53;101177.11;1738576;80;21026;-51
2020/12/15 08:10:32;;;;;;;79.27;53.73;;;;;;;2.52;82.29;101176.08;1735145;80;21766;-51
2020/12/15 08:13:02;;;;;;;71.60;49.18;;;;;;;2.53;82.26;101179.95;1709381;83;21086;-54
2020/12/15 08:15:37;;;;;;;50.83;32.93;;;;;;;2.55;82.06;101182.45;1678361;85;21051;-52
2020/12/15 08:18:10;;;;;;;56.90;35.60;;;;;;;2.57;82.15;101185.79;1695787;82;21084;-51
2020/12/15 08:20:41;;;;;;;51.30;33.13;;;;;;;2.57;82.04;101180.36;1693146;82;21063;-51
2020/12/15 08:23:13;;;;;;;48.78;32.83;;;;;;;2.58;82.07;101185.59;1694865;82;21381;-56
2020/12/15 08:25:44;;;;;;;57.30;39.55;;;;;;;2.62;81.96;101179.25;1695101;82;21113;-57
2020/12/15 08:28:23;;;;;;;61.90;40.85;;;;;;;2.62;81.99;101173.83;1696646;84;21391;-56
2020/12/15 08:30:55;;;;;;;69.37;45.50;;;;;;;2.69;82.03;101177.94;1695927;82;21055;-57
2020/12/15 08:33:28;;;;;;;79.22;50.65;;;;;;;2.72;81.84;101183.77;1691663;84;21708;-56
2020/12/15 08:35:58;;;;;;;92.00;57.30;;;;;;;2.75;81.89;101184.72;1693156;82;21398;-58
2020/12/15 08:38:27;;;;;;;85.97;58.73;;;;;;;2.78;81.81;101186.20;1679614;84;21847;-58
2020/12/15 08:41:03;;;;;;;83.90;49.60;;;;;;;2.78;81.75;101184.84;1666296;83;21670;-57
2020/12/15 08:43:33;;;;;;;63.08;43.40;;;;;;;2.79;81.76;101182.95;1703630;82;21075;-58
2020/12/15 08:46:02;;;;;;;68.60;48.48;;;;;;;2.81;81.70;101183.08;1700302;82;21075;-57
2020/12/15 08:48:31;;;;;;;64.82;45.63;;;;;;;2.81;81.63;101194.45;1703595;82;21942;-58
2020/12/15 08:50:59;;;;;;;63.20;45.78;;;;;;;2.80;81.60;101184.13;1657043;83;21034;-57
2020/12/15 08:53:27;;;;;;;54.93;36.55;;;;;;;2.78;81.55;101189.44;1627527;83;21566;-58
2020/12/15 08:55:55;;;;;;;49.60;33.53;;;;;;;2.75;81.47;101183.89;1628330;83;21691;-57
2020/12/15 08:58:25;;;;;;;54.90;37.85;;;;;;;2.76;81.56;101189.12;1704269;83;20961;-58
2020/12/15 09:00:52;;;;;;;51.20;34.53;;;;;;;2.80;81.55;101190.92;1658360;83;24194;-58
2020/12/15 09:03:20;;;;;;;52.33;31.35;;;;;;;2.84;81.34;101195.41;1704382;82;21030;-59
2020/12/15 09:05:56;;;;;;;49.48;34.80;;;;;;;2.83;81.35;101189.65;1681134;83;20987;-58
2020/12/15 09:08:25;;;;;;;49.40;33.47;;;;;;;2.85;81.37;101184.88;1712378;82;21562;-57
2020/12/15 09:10:56;;;;;;;50.20;34.80;;;;;;;2.91;81.32;101186.77;1710594;82;21731;-58
2020/12/15 09:13:24;;;;;;;47.03;30.55;;;;;;;2.92;81.09;101190.63;1708606;82;21208;-58
2020/12/15 09:15:54;;;;;;;54.48;35.45;;;;;;;2.94;80.98;101181.78;1711082;82;21776;-58
2020/12/15 09:18:33;;;;;;;50.98;34.55;;;;;;;3.02;80.96;101182.63;1708248;82;21012;-57
2020/12/15 09:21:17;;;;;;;54.40;36.38;;;;;;;3.04;80.79;101185.43;1708719;82;21006;-58
2020/12/15 09:23:51;;;;;;;56.05;38.20;;;;;;;3.02;80.58;101190.25;1710840;83;20988;-58
2020/12/15 09:26:34;;;;;;;56.53;39.07;;;;;;;3.03;80.66;101182.42;1818865;76;28100;-60
2020/12/15 09:29:10;;;;;;;45.88;30.92;;;;;;;2.99;80.55;101187.94;1715340;80;21081;-59
2020/12/15 09:31:43;;;;;;;48.13;33.18;;;;;;;2.98;80.74;101179.48;1759864;80;22116;-59
2020/12/15 09:34:11;;;;;;;52.75;35.70;;;;;;;2.98;80.61;101184.91;1761336;80;21022;-59
2020/12/15 09:36:40;;;;;;;52.88;35.35;;;;;;;2.95;80.82;101188.03;1764115;80;21570;-60
2020/12/15 09:39:08;;;;;;;48.30;30.57;;;;;;;2.93;80.78;101184.70;1729823;81;21009;-59
2020/12/15 09:41:36;;;;;;;46.65;31.93;;;;;;;2.91;80.91;101181.34;1734596;81;20971;-59
2020/12/15 09:44:04;;;;;;;56.50;38.20;;;;;;;2.89;80.91;101191.57;1747773;81;21398;-58
2020/12/15 09:46:31;;;;;;;57.48;40.12;;;;;;;2.86;81.02;101186.52;1722836;82;21096;-59
2020/12/15 09:48:59;;;;;;;52.25;35.10;;;;;;;2.90;81.19;101185.94;1731893;81;20999;-58
2020/12/15 09:51:27;;;;;;;48.05;31.73;;;;;;;2.94;81.18;101184.49;1731153;81;21683;-57
2020/12/15 09:53:56;;;;;;;57.38;36.40;;;;;;;2.96;81.06;101186.14;1728230;81;20982;-58
2020/12/15 09:56:23;;;;;;;56.40;38.42;;;;;;;2.97;81.00;101191.36;1730118;81;22126;-58
2020/12/15 09:58:51;;;;;;;52.73;36.48;;;;;;;3.01;81.01;101179.06;1727869;81;20973;-58
2020/12/15 10:01:21;;;;;;;51.95;34.20;;;;;;;3.07;81.00;101185.05;1729038;81;21002;-57
2020/12/15 10:03:49;;;;;;;49.90;31.82;;;;;;;3.10;80.75;101180.56;1728424;81;20994;-57
2020/12/15 10:06:22;;;;;;;54.85;33.00;;;;;;;3.09;80.52;101181.59;1724767;81;21978;-58
2020/12/15 10:08:54;;;;;;;45.85;29.48;;;;;;;3.09;80.41;101172.63;1689766;82;21413;-58
2020/12/15 10:11:30;;;;;;;52.27;33.30;;;;;;;3.04;80.09;101174.58;1683302;81;21181;-60
2020/12/15 10:14:02;;;;;;;42.67;28.62;;;;;;;2.96;80.28;101179.36;1690093;81;21554;-59
2020/12/15 10:16:32;;;;;;;46.77;31.23;;;;;;;3.00;80.63;101171.98;1726500;81;21026;-61
2020/12/15 10:19:00;;;;;;;42.85;27.90;;;;;;;3.09;80.50;101181.59;1727700;81;21024;-59
2020/12/15 10:21:31;;;;;;;52.73;33.30;;;;;;;3.13;80.31;101177.11;1726232;81;21559;-60
2020/12/15 10:23:59;;;;;;;48.15;33.05;;;;;;;3.06;79.94;101179.30;1724582;81;20974;-59
2020/12/15 10:26:29;;;;;;;63.28;43.15;;;;;;;3.03;80.25;101174.28;1731659;81;21041;-58
2020/12/15 10:28:57;;;;;;;57.67;38.23;;;;;;;2.99;80.34;101177.09;1737470;81;20990;-59
2020/12/15 10:31:25;;;;;;;57.60;37.23;;;;;;;2.99;80.51;101178.45;1730307;81;20986;-60
2020/12/15 10:33:53;;;;;;;55.83;36.40;;;;;;;3.03;80.77;101168.00;1735605;81;21213;-58
2020/12/15 10:36:21;;;;;;;51.53;34.13;;;;;;;3.09;80.54;101172.63;1735716;81;21011;-58
2020/12/15 10:38:49;;;;;;;52.30;36.83;;;;;;;3.06;80.35;101183.37;1747725;81;20974;-61
2020/12/15 10:41:17;;;;;;;62.30;37.88;;;;;;;3.06;80.38;101176.58;1729034;82;20989;-59
2020/12/15 10:43:47;;;;;;;56.55;36.63;;;;;;;3.06;80.48;101179.83;1709870;81;21649;-59
2020/12/15 10:46:25;;;;;;;56.75;37.35;;;;;;;3.10;80.64;101177.84;1726518;82;21403;-59
2020/12/15 10:48:58;;;;;;;56.20;34.88;;;;;;;3.14;80.41;101179.61;1716551;81;21662;-59
2020/12/15 10:51:28;;;;;;;54.95;33.30;;;;;;;3.08;80.29;101183.98;1745299;81;20979;-59
2020/12/15 10:54:03;;;;;;;53.55;35.88;;;;;;;3.03;80.41;101176.14;1714375;82;21024;-59
2020/12/15 10:56:35;;;;;;;58.45;40.00;;;;;;;3.05;80.60;101176.26;1724422;82;20987;-57
2020/12/15 10:59:09;;;;;;;54.38;34.48;;;;;;;3.04;80.45;101177.29;1664703;83;21433;-58
2020/12/15 11:01:41;;;;;;;51.73;33.05;;;;;;;3.01;80.65;101185.84;1722300;82;21035;-60
2020/12/15 11:04:09;;;;;;;59.53;37.65;;;;;;;3.05;80.79;101185.76;1743107;80;21010;-58
2020/12/15 11:06:40;;;;;;;61.92;37.90;;;;;;;3.11;80.55;101190.89;1741457;81;21566;-59
2020/12/15 11:09:10;;;;;;;58.00;37.15;;;;;;;3.13;80.63;101190.68;1745375;81;21444;-60
2020/12/15 11:11:38;;;;;;;56.85;38.10;;;;;;;3.15;80.66;101195.41;1743729;81;21447;-60
2020/12/15 11:14:06;;;;;;;59.13;36.85;;;;;;;3.18;80.82;101189.55;1746801;80;21022;-60
2020/12/15 11:16:35;;;;;;;53.20;36.55;;;;;;;3.22;80.71;101193.54;1737316;81;21652;-60
2020/12/15 11:19:04;;;;;;;51.33;32.85;;;;;;;3.26;80.69;101196.16;1739716;81;21009;-61
2020/12/15 11:21:32;;;;;;;55.00;33.23;;;;;;;3.28;80.48;101196.78;1745458;81;20948;-60
2020/12/15 11:24:00;;;;;;;56.98;34.27;;;;;;;3.29;80.28;101197.10;1748089;81;21359;-60
2020/12/15 11:26:28;;;;;;;56.65;35.23;;;;;;;3.27;80.18;101193.73;1710235;82;21011;-60
2020/12/15 11:28:55;;;;;;;56.25;37.20;;;;;;;3.24;80.22;101199.59;1704873;82;21004;-60
2020/12/15 11:31:23;;;;;;;52.05;36.25;;;;;;;3.24;80.25;101199.59;1709266;82;20983;-60
2020/12/15 11:33:52;;;;;;;46.73;30.50;;;;;;;3.27;80.26;101200.52;1770770;79;21102;-61
2020/12/15 11:36:20;;;;;;;44.05;30.00;;;;;;;3.27;80.16;101208.67;1765672;79;21379;-61
2020/12/15 11:38:48;;;;;;;51.95;35.95;;;;;;;3.26;80.22;101209.20;1773657;79;21012;-60